createdAt,value
2022-09-23T00:04:36.356Z,11.35
2022-09-23T00:14:41.026Z,12.50
2022-09-23T00:24:44.303Z,16.15
2022-09-23T00:34:49.882Z,14.02
2022-09-23T00:44:54.219Z,13.60
2022-09-23T00:55:00.928Z,12.63
2022-09-23T01:05:04.941Z,13.48
2022-09-23T01:15:18.802Z,10.93
2022-09-23T01:25:40.891Z,16.58
2022-09-23T01:35:56.219Z,13.55
2022-09-23T01:46:01.367Z,20.77
2022-09-23T01:56:13.603Z,13.00
2022-09-23T02:16:28.703Z,12.70
2022-09-23T02:26:36.307Z,15.38
2022-09-23T02:36:46.982Z,12.70
2022-09-23T02:46:52.275Z,12.90
2022-09-23T02:56:57.357Z,13.35
2022-09-23T03:07:06.266Z,15.77
2022-09-23T03:17:17.206Z,13.13
2022-09-23T03:37:34.879Z,11.80
2022-09-23T03:47:39.569Z,13.40
2022-09-23T03:57:43.758Z,11.60
2022-09-23T04:07:46.504Z,11.90
2022-09-23T04:17:50.478Z,14.77
2022-09-23T04:27:53.123Z,13.55
2022-09-23T04:37:57.638Z,13.15
2022-09-23T04:48:00.273Z,13.45
2022-09-23T04:58:04.357Z,19.25
2022-09-23T05:08:07.074Z,13.38
2022-09-23T05:18:11.116Z,15.82
2022-09-23T05:28:14.974Z,20.88
2022-09-23T05:38:18.981Z,21.30
2022-09-23T05:48:21.693Z,13.65
2022-09-23T05:58:27.623Z,12.90
2022-09-23T06:08:30.342Z,12.80
2022-09-23T06:18:34.492Z,12.18
2022-09-23T06:28:38.982Z,10.15
2022-09-23T06:38:45.158Z,15.43
2022-09-23T06:48:49.090Z,11.80
2022-09-23T06:58:54.668Z,12.52
2022-09-23T07:08:57.330Z,11.57
2022-09-23T07:19:01.442Z,10.20
2022-09-23T07:29:05.613Z,9.48
2022-09-23T07:39:11.030Z,10.68
2022-09-23T07:49:13.711Z,13.15
2022-09-23T07:59:19.524Z,9.65
2022-09-23T08:09:24.378Z,9.80
2022-09-23T08:19:28.410Z,9.80
2022-09-23T08:29:31.130Z,8.75
2022-09-23T08:39:35.143Z,10.73
2022-09-23T08:49:41.195Z,9.85
2022-09-23T08:59:46.191Z,11.82
2022-09-23T09:09:53.073Z,9.43
2022-09-23T09:19:59.211Z,10.35
2022-09-23T09:30:02.259Z,7.97
2022-09-23T09:40:09.411Z,7.50
2022-09-23T09:50:19.099Z,8.88
2022-09-23T10:00:42.636Z,9.82
2022-09-23T10:10:54.840Z,8.70
2022-09-23T10:21:07.774Z,7.40
2022-09-23T10:31:13.135Z,7.15
2022-09-23T10:41:47.464Z,9.57
2022-09-23T10:51:57.858Z,8.43
2022-09-23T11:02:14.612Z,7.75
2022-09-23T11:12:27.430Z,7.63
2022-09-23T11:22:49.097Z,6.32
2022-09-23T11:33:14.534Z,8.45
2022-09-23T11:43:21.644Z,12.90
2022-09-23T11:53:33.836Z,6.38
2022-09-23T12:03:48.386Z,10.70
2022-09-23T12:13:57.491Z,5.47
2022-09-23T12:24:27.273Z,7.10
2022-09-23T12:34:37.720Z,7.00
2022-09-23T12:44:44.414Z,8.43
2022-09-23T12:54:48.457Z,6.07
2022-09-23T13:05:15.821Z,4.93
2022-09-23T13:15:30.447Z,4.68
2022-09-23T13:25:40.844Z,4.82
2022-09-23T13:35:51.071Z,7.28
2022-09-23T13:45:55.831Z,5.93
2022-09-23T13:56:04.625Z,14.43
2022-09-23T14:06:12.924Z,6.73
2022-09-23T14:16:17.130Z,7.22
2022-09-23T14:26:21.882Z,8.05
2022-09-23T14:36:42.174Z,5.47
2022-09-23T14:46:56.521Z,9.13
2022-09-23T14:56:59.433Z,8.48
2022-09-23T15:07:07.801Z,6.13
2022-09-23T15:17:19.473Z,6.22
2022-09-23T15:27:31.655Z,6.65
2022-09-23T15:37:36.488Z,6.65
2022-09-23T15:47:40.644Z,8.85
2022-09-23T15:57:43.316Z,6.38
2022-09-23T16:07:48.391Z,9.25
2022-09-23T16:17:51.916Z,9.23
2022-09-23T16:27:56.685Z,10.23
2022-09-23T16:37:59.341Z,17.17
2022-09-23T16:48:03.603Z,9.98
2022-09-23T16:58:06.253Z,11.00
2022-09-23T17:08:12.984Z,13.73
2022-09-23T17:18:19.429Z,14.38
2022-09-23T17:28:24.242Z,15.35
2022-09-23T17:38:29.403Z,13.82
2022-09-23T17:48:35.662Z,15.30
2022-09-23T17:58:39.032Z,35.38
2022-09-23T18:08:44.939Z,21.70
2022-09-23T18:18:51.856Z,18.38
2022-09-23T18:29:01.439Z,17.98
2022-09-23T18:39:05.257Z,22.07
2022-09-23T18:49:27.387Z,24.50
2022-09-23T18:59:30.229Z,26.85
2022-09-23T19:09:34.330Z,18.08
2022-09-23T19:19:37.284Z,18.65
2022-09-23T19:29:41.741Z,20.25
2022-09-23T19:39:44.679Z,17.73
2022-09-23T19:49:49.783Z,17.40
2022-09-23T19:59:52.482Z,25.05
2022-09-23T20:09:56.759Z,21.58
2022-09-23T20:19:59.718Z,23.65
2022-09-23T20:30:03.780Z,18.48
2022-09-23T20:40:10.088Z,20.00
2022-09-23T20:50:14.178Z,18.10
2022-09-23T21:00:18.323Z,17.25
2022-09-23T21:10:22.840Z,26.70
2022-09-23T21:20:25.555Z,23.25
2022-09-23T21:30:29.829Z,23.02
2022-09-23T21:40:49.951Z,25.00
2022-09-23T21:50:57.330Z,21.73
2022-09-23T22:01:01.034Z,23.92
2022-09-23T22:11:30.460Z,23.95
2022-09-23T22:21:33.728Z,19.27
2022-09-23T22:31:55.311Z,21.08
2022-09-23T22:41:58.410Z,19.90
2022-09-23T22:52:03.963Z,22.58
2022-09-23T23:02:07.600Z,28.20
2022-09-23T23:12:11.692Z,28.80
2022-09-23T23:22:14.381Z,27.48
2022-09-23T23:32:18.343Z,32.25
2022-09-23T23:42:21.044Z,26.95
2022-09-23T23:52:25.038Z,29.25
